sensor_id;sensor_type;location;lat;lon;timestamp;temperature;humidity
306;DHT22;137;48.578;9.180;2023-11-18T00:01:19;4.60;98.20
306;DHT22;137;48.578;9.180;2023-11-18T00:03:45;4.50;98.20
306;DHT22;137;48.578;9.180;2023-11-18T00:06:12;4.50;98.20
306;DHT22;137;48.578;9.180;2023-11-18T00:08:39;4.50;98.20
306;DHT22;137;48.578;9.180;2023-11-18T00:11:05;4.60;98.20
306;DHT22;137;48.578;9.180;2023-11-18T00:13:32;4.60;98.20
306;DHT22;137;48.578;9.180;2023-11-18T00:16:00;4.60;98.20
306;DHT22;137;48.578;9.180;2023-11-18T00:18:28;4.60;98.20
306;DHT22;137;48.578;9.180;2023-11-18T00:20:57;4.50;98.20
306;DHT22;137;48.578;9.180;2023-11-18T00:23:24;4.40;98.20
306;DHT22;137;48.578;9.180;2023-11-18T00:25:52;4.40;98.20
306;DHT22;137;48.578;9.180;2023-11-18T00:28:19;4.30;98.20
306;DHT22;137;48.578;9.180;2023-11-18T00:30:46;4.30;98.20
306;DHT22;137;48.578;9.180;2023-11-18T00:33:14;4.20;98.20
306;DHT22;137;48.578;9.180;2023-11-18T00:35:40;4.10;98.20
306;DHT22;137;48.578;9.180;2023-11-18T00:38:08;4.10;98.20
306;DHT22;137;48.578;9.180;2023-11-18T00:40:35;4.20;98.20
306;DHT22;137;48.578;9.180;2023-11-18T00:43:02;4.20;98.20
306;DHT22;137;48.578;9.180;2023-11-18T00:45:29;4.20;98.20
306;DHT22;137;48.578;9.180;2023-11-18T00:47:56;4.30;98.20
306;DHT22;137;48.578;9.180;2023-11-18T00:50:24;4.30;98.20
306;DHT22;137;48.578;9.180;2023-11-18T00:52:50;4.30;98.20
306;DHT22;137;48.578;9.180;2023-11-18T00:55:17;4.40;98.20
306;DHT22;137;48.578;9.180;2023-11-18T00:57:44;4.40;98.20
306;DHT22;137;48.578;9.180;2023-11-18T01:00:12;4.50;98.20
306;DHT22;137;48.578;9.180;2023-11-18T01:02:41;4.50;98.20
306;DHT22;137;48.578;9.180;2023-11-18T01:05:08;4.50;98.20
306;DHT22;137;48.578;9.180;2023-11-18T01:07:38;4.60;98.20
306;DHT22;137;48.578;9.180;2023-11-18T01:10:07;4.60;98.20
306;DHT22;137;48.578;9.180;2023-11-18T01:12:35;4.60;98.20
306;DHT22;137;48.578;9.180;2023-11-18T01:15:02;4.60;98.20
306;DHT22;137;48.578;9.180;2023-11-18T01:17:29;4.60;98.20
306;DHT22;137;48.578;9.180;2023-11-18T01:19:56;4.60;98.20
306;DHT22;137;48.578;9.180;2023-11-18T01:22:23;4.60;98.20
306;DHT22;137;48.578;9.180;2023-11-18T01:24:51;4.60;98.20
306;DHT22;137;48.578;9.180;2023-11-18T01:27:18;4.60;98.20
306;DHT22;137;48.578;9.180;2023-11-18T01:29:46;4.60;98.20
306;DHT22;137;48.578;9.180;2023-11-18T01:32:13;4.50;98.20
306;DHT22;137;48.578;9.180;2023-11-18T01:34:40;4.50;98.20
306;DHT22;137;48.578;9.180;2023-11-18T01:37:09;4.50;98.20
306;DHT22;137;48.578;9.180;2023-11-18T01:39:36;4.50;98.20
306;DHT22;137;48.578;9.180;2023-11-18T01:42:05;4.50;98.20
306;DHT22;137;48.578;9.180;2023-11-18T01:44:31;4.50;98.20
306;DHT22;137;48.578;9.180;2023-11-18T01:47:01;4.50;98.20
306;DHT22;137;48.578;9.180;2023-11-18T01:49:32;4.60;98.20
306;DHT22;137;48.578;9.180;2023-11-18T01:52:03;4.60;98.20
306;DHT22;137;48.578;9.180;2023-11-18T01:54:30;4.60;98.20
306;DHT22;137;48.578;9.180;2023-11-18T01:56:57;4.60;98.20
306;DHT22;137;48.578;9.180;2023-11-18T01:59:28;4.60;98.20
306;DHT22;137;48.578;9.180;2023-11-18T02:01:55;4.60;98.20
306;DHT22;137;48.578;9.180;2023-11-18T02:04:24;4.60;98.20
306;DHT22;137;48.578;9.180;2023-11-18T02:06:52;4.60;98.20
306;DHT22;137;48.578;9.180;2023-11-18T02:09:20;4.60;98.20
306;DHT22;137;48.578;9.180;2023-11-18T02:11:56;4.60;98.20
306;DHT22;137;48.578;9.180;2023-11-18T02:14:28;4.70;98.20
306;DHT22;137;48.578;9.180;2023-11-18T02:16:57;4.70;98.20
306;DHT22;137;48.578;9.180;2023-11-18T02:19:26;4.70;98.20
306;DHT22;137;48.578;9.180;2023-11-18T02:21:55;4.60;98.20
306;DHT22;137;48.578;9.180;2023-11-18T02:24:27;4.60;98.20
306;DHT22;137;48.578;9.180;2023-11-18T02:26:59;4.60;98.20
306;DHT22;137;48.578;9.180;2023-11-18T02:29:29;4.60;98.20
306;DHT22;137;48.578;9.180;2023-11-18T02:32:03;4.70;98.20
306;DHT22;137;48.578;9.180;2023-11-18T02:34:32;4.70;98.20
306;DHT22;137;48.578;9.180;2023-11-18T02:37:03;4.70;98.20
306;DHT22;137;48.578;9.180;2023-11-18T02:39:35;4.70;98.20
306;DHT22;137;48.578;9.180;2023-11-18T02:42:07;4.60;98.20
306;DHT22;137;48.578;9.180;2023-11-18T02:44:35;4.60;98.20
306;DHT22;137;48.578;9.180;2023-11-18T02:47:03;4.60;98.20
306;DHT22;137;48.578;9.180;2023-11-18T02:49:31;4.60;98.20
306;DHT22;137;48.578;9.180;2023-11-18T02:51:58;4.50;98.20
306;DHT22;137;48.578;9.180;2023-11-18T02:54:24;4.40;98.20
306;DHT22;137;48.578;9.180;2023-11-18T02:56:51;4.30;98.20
306;DHT22;137;48.578;9.180;2023-11-18T02:59:19;4.20;98.20
306;DHT22;137;48.578;9.180;2023-11-18T03:01:46;4.10;98.20
306;DHT22;137;48.578;9.180;2023-11-18T03:04:13;4.00;98.20
306;DHT22;137;48.578;9.180;2023-11-18T03:06:40;3.90;98.20
306;DHT22;137;48.578;9.180;2023-11-18T03:09:07;3.80;98.20
306;DHT22;137;48.578;9.180;2023-11-18T03:11:36;3.80;98.20
306;DHT22;137;48.578;9.180;2023-11-18T03:14:03;3.70;98.20
306;DHT22;137;48.578;9.180;2023-11-18T03:16:36;3.70;98.20
306;DHT22;137;48.578;9.180;2023-11-18T03:19:03;3.60;98.20
306;DHT22;137;48.578;9.180;2023-11-18T03:21:30;3.60;98.20
306;DHT22;137;48.578;9.180;2023-11-18T03:23:57;3.60;98.20
306;DHT22;137;48.578;9.180;2023-11-18T03:26:24;3.50;98.20
306;DHT22;137;48.578;9.180;2023-11-18T03:28:51;3.50;98.20
306;DHT22;137;48.578;9.180;2023-11-18T03:31:18;3.40;98.20
306;DHT22;137;48.578;9.180;2023-11-18T03:33:46;3.40;98.20
306;DHT22;137;48.578;9.180;2023-11-18T03:36:13;3.30;98.20
306;DHT22;137;48.578;9.180;2023-11-18T03:38:43;3.30;98.20
306;DHT22;137;48.578;9.180;2023-11-18T03:41:10;3.20;98.20
306;DHT22;137;48.578;9.180;2023-11-18T03:43:38;3.10;98.20
306;DHT22;137;48.578;9.180;2023-11-18T03:46:05;3.10;98.20
306;DHT22;137;48.578;9.180;2023-11-18T03:48:33;3.00;98.20
306;DHT22;137;48.578;9.180;2023-11-18T03:51:01;3.00;98.20
306;DHT22;137;48.578;9.180;2023-11-18T03:53:28;3.00;98.20
306;DHT22;137;48.578;9.180;2023-11-18T03:55:55;2.90;98.20
306;DHT22;137;48.578;9.180;2023-11-18T03:58:22;2.90;98.20
306;DHT22;137;48.578;9.180;2023-11-18T04:00:49;2.80;98.20
306;DHT22;137;48.578;9.180;2023-11-18T04:03:14;2.80;98.20
306;DHT22;137;48.578;9.180;2023-11-18T04:05:41;2.80;98.20
306;DHT22;137;48.578;9.180;2023-11-18T04:08:09;2.90;98.20
306;DHT22;137;48.578;9.180;2023-11-18T04:10:37;3.00;98.20
306;DHT22;137;48.578;9.180;2023-11-18T04:13:03;3.10;98.20
306;DHT22;137;48.578;9.180;2023-11-18T04:15:30;3.10;98.20
306;DHT22;137;48.578;9.180;2023-11-18T04:17:57;3.20;98.20
306;DHT22;137;48.578;9.180;2023-11-18T04:20:24;3.20;98.20
306;DHT22;137;48.578;9.180;2023-11-18T04:22:50;3.20;98.20
306;DHT22;137;48.578;9.180;2023-11-18T04:25:18;3.20;98.20
306;DHT22;137;48.578;9.180;2023-11-18T04:27:46;3.20;98.20
306;DHT22;137;48.578;9.180;2023-11-18T04:30:13;3.30;98.20
306;DHT22;137;48.578;9.180;2023-11-18T04:32:40;3.30;98.20
306;DHT22;137;48.578;9.180;2023-11-18T04:35:08;3.30;98.20
306;DHT22;137;48.578;9.180;2023-11-18T04:37:37;3.30;98.20
306;DHT22;137;48.578;9.180;2023-11-18T04:40:06;3.40;98.20
306;DHT22;137;48.578;9.180;2023-11-18T04:42:37;3.40;98.20
306;DHT22;137;48.578;9.180;2023-11-18T04:45:05;3.50;98.20
306;DHT22;137;48.578;9.180;2023-11-18T04:47:32;3.50;98.20
306;DHT22;137;48.578;9.180;2023-11-18T04:49:59;3.50;98.20
306;DHT22;137;48.578;9.180;2023-11-18T04:52:26;3.50;98.20
306;DHT22;137;48.578;9.180;2023-11-18T04:54:53;3.50;98.20
306;DHT22;137;48.578;9.180;2023-11-18T04:57:19;3.50;98.20
306;DHT22;137;48.578;9.180;2023-11-18T04:59:47;3.50;98.20
306;DHT22;137;48.578;9.180;2023-11-18T05:02:14;3.50;98.20
306;DHT22;137;48.578;9.180;2023-11-18T05:04:41;3.50;98.20
306;DHT22;137;48.578;9.180;2023-11-18T05:07:08;3.40;98.20
306;DHT22;137;48.578;9.180;2023-11-18T05:09:35;3.40;98.20
306;DHT22;137;48.578;9.180;2023-11-18T05:12:03;3.40;98.20
306;DHT22;137;48.578;9.180;2023-11-18T05:14:30;3.40;98.20
306;DHT22;137;48.578;9.180;2023-11-18T05:16:59;3.50;98.20
306;DHT22;137;48.578;9.180;2023-11-18T05:19:28;3.60;98.20
306;DHT22;137;48.578;9.180;2023-11-18T05:21:55;3.80;98.20
306;DHT22;137;48.578;9.180;2023-11-18T05:24:25;3.80;98.20
306;DHT22;137;48.578;9.180;2023-11-18T05:26:53;3.90;98.20
306;DHT22;137;48.578;9.180;2023-11-18T05:29:25;3.90;98.20
306;DHT22;137;48.578;9.180;2023-11-18T05:31:54;4.00;98.20
306;DHT22;137;48.578;9.180;2023-11-18T05:34:23;3.90;98.20
306;DHT22;137;48.578;9.180;2023-11-18T05:36:57;4.00;98.20
306;DHT22;137;48.578;9.180;2023-11-18T05:39:26;4.00;98.20
306;DHT22;137;48.578;9.180;2023-11-18T05:41:57;4.00;98.20
306;DHT22;137;48.578;9.180;2023-11-18T05:44:25;4.00;98.20
306;DHT22;137;48.578;9.180;2023-11-18T05:46:59;4.00;98.20
306;DHT22;137;48.578;9.180;2023-11-18T05:49:28;4.00;98.20
306;DHT22;137;48.578;9.180;2023-11-18T05:51:55;4.00;98.20
306;DHT22;137;48.578;9.180;2023-11-18T05:54:21;4.00;98.20
306;DHT22;137;48.578;9.180;2023-11-18T05:56:48;4.00;98.20
306;DHT22;137;48.578;9.180;2023-11-18T05:59:15;3.90;98.20
306;DHT22;137;48.578;9.180;2023-11-18T06:01:43;3.90;98.20
306;DHT22;137;48.578;9.180;2023-11-18T06:04:09;3.90;98.20
306;DHT22;137;48.578;9.180;2023-11-18T06:06:37;3.90;98.20
306;DHT22;137;48.578;9.180;2023-11-18T06:09:04;3.90;98.20
306;DHT22;137;48.578;9.180;2023-11-18T06:11:35;3.90;98.20
306;DHT22;137;48.578;9.180;2023-11-18T06:14:06;4.00;98.20
306;DHT22;137;48.578;9.180;2023-11-18T06:16:34;4.00;98.20
306;DHT22;137;48.578;9.180;2023-11-18T06:19:01;4.00;98.20
306;DHT22;137;48.578;9.180;2023-11-18T06:21:30;4.00;98.20
306;DHT22;137;48.578;9.180;2023-11-18T06:24:00;4.00;98.20
306;DHT22;137;48.578;9.180;2023-11-18T06:26:29;4.00;98.20
306;DHT22;137;48.578;9.180;2023-11-18T06:28:56;4.10;98.20
306;DHT22;137;48.578;9.180;2023-11-18T06:31:25;4.10;98.20
306;DHT22;137;48.578;9.180;2023-11-18T06:33:51;4.10;98.20
306;DHT22;137;48.578;9.180;2023-11-18T06:36:19;4.10;98.20
306;DHT22;137;48.578;9.180;2023-11-18T06:38:47;4.10;98.20
306;DHT22;137;48.578;9.180;2023-11-18T06:41:17;4.10;98.20
306;DHT22;137;48.578;9.180;2023-11-18T06:43:45;4.10;98.20
306;DHT22;137;48.578;9.180;2023-11-18T06:46:26;4.10;98.20
306;DHT22;137;48.578;9.180;2023-11-18T06:48:57;4.00;98.20
306;DHT22;137;48.578;9.180;2023-11-18T06:51:26;4.00;98.20
306;DHT22;137;48.578;9.180;2023-11-18T06:53:53;3.90;98.20
306;DHT22;137;48.578;9.180;2023-11-18T06:56:23;3.90;98.20
306;DHT22;137;48.578;9.180;2023-11-18T06:58:50;3.90;98.20
306;DHT22;137;48.578;9.180;2023-11-18T07:01:17;3.90;98.20
306;DHT22;137;48.578;9.180;2023-11-18T07:03:45;3.90;98.20
306;DHT22;137;48.578;9.180;2023-11-18T07:06:16;3.90;98.20
306;DHT22;137;48.578;9.180;2023-11-18T07:08:47;3.90;98.20
306;DHT22;137;48.578;9.180;2023-11-18T07:11:14;3.90;98.20
306;DHT22;137;48.578;9.180;2023-11-18T07:13:43;4.00;98.20
306;DHT22;137;48.578;9.180;2023-11-18T07:16:09;4.10;98.20
306;DHT22;137;48.578;9.180;2023-11-18T07:18:37;4.10;98.20
306;DHT22;137;48.578;9.180;2023-11-18T07:21:04;4.20;98.20
306;DHT22;137;48.578;9.180;2023-11-18T07:23:31;4.30;98.20
306;DHT22;137;48.578;9.180;2023-11-18T07:25:58;4.40;98.20
306;DHT22;137;48.578;9.180;2023-11-18T07:28:25;4.40;98.20
306;DHT22;137;48.578;9.180;2023-11-18T07:30:53;4.50;98.20
306;DHT22;137;48.578;9.180;2023-11-18T07:33:20;4.70;98.20
306;DHT22;137;48.578;9.180;2023-11-18T07:35:48;4.80;98.20
306;DHT22;137;48.578;9.180;2023-11-18T07:38:16;4.80;98.20
306;DHT22;137;48.578;9.180;2023-11-18T07:40:45;4.90;98.20
306;DHT22;137;48.578;9.180;2023-11-18T07:43:13;5.00;98.20
306;DHT22;137;48.578;9.180;2023-11-18T07:45:40;5.00;98.20
306;DHT22;137;48.578;9.180;2023-11-18T07:48:09;5.10;98.20
306;DHT22;137;48.578;9.180;2023-11-18T07:50:38;5.20;98.20
306;DHT22;137;48.578;9.180;2023-11-18T07:53:07;5.20;98.20
306;DHT22;137;48.578;9.180;2023-11-18T07:55:34;5.30;98.20
306;DHT22;137;48.578;9.180;2023-11-18T07:58:04;5.30;98.20
306;DHT22;137;48.578;9.180;2023-11-18T08:00:36;5.40;98.20
306;DHT22;137;48.578;9.180;2023-11-18T08:03:04;5.50;98.20
306;DHT22;137;48.578;9.180;2023-11-18T08:05:34;5.50;98.20
306;DHT22;137;48.578;9.180;2023-11-18T08:08:00;5.50;98.20
306;DHT22;137;48.578;9.180;2023-11-18T08:10:27;5.50;98.20
306;DHT22;137;48.578;9.180;2023-11-18T08:12:54;5.60;98.20
306;DHT22;137;48.578;9.180;2023-11-18T08:15:21;5.70;98.20
306;DHT22;137;48.578;9.180;2023-11-18T08:17:48;5.80;98.20
306;DHT22;137;48.578;9.180;2023-11-18T08:20:15;5.80;98.20
306;DHT22;137;48.578;9.180;2023-11-18T08:22:43;5.90;98.20
306;DHT22;137;48.578;9.180;2023-11-18T08:25:10;6.00;98.20
306;DHT22;137;48.578;9.180;2023-11-18T08:27:38;6.00;98.20
306;DHT22;137;48.578;9.180;2023-11-18T08:30:06;6.10;98.20
306;DHT22;137;48.578;9.180;2023-11-18T08:32:36;6.10;98.20
306;DHT22;137;48.578;9.180;2023-11-18T08:35:05;6.10;98.20
306;DHT22;137;48.578;9.180;2023-11-18T08:37:33;6.10;98.20
306;DHT22;137;48.578;9.180;2023-11-18T08:40:02;6.10;98.20
306;DHT22;137;48.578;9.180;2023-11-18T08:42:29;6.20;98.20
306;DHT22;137;48.578;9.180;2023-11-18T08:44:57;6.20;98.20
306;DHT22;137;48.578;9.180;2023-11-18T08:47:24;6.20;98.20
306;DHT22;137;48.578;9.180;2023-11-18T08:49:51;6.20;98.20
306;DHT22;137;48.578;9.180;2023-11-18T08:52:18;6.20;98.20
306;DHT22;137;48.578;9.180;2023-11-18T08:54:44;6.30;98.20
306;DHT22;137;48.578;9.180;2023-11-18T08:57:26;6.40;98.20
306;DHT22;137;48.578;9.180;2023-11-18T08:59:59;6.30;98.20
306;DHT22;137;48.578;9.180;2023-11-18T09:02:32;6.40;98.20
306;DHT22;137;48.578;9.180;2023-11-18T09:05:02;6.50;98.20
306;DHT22;137;48.578;9.180;2023-11-18T09:07:38;6.60;98.20
306;DHT22;137;48.578;9.180;2023-11-18T09:10:05;6.60;98.20
306;DHT22;137;48.578;9.180;2023-11-18T09:12:35;6.60;98.20
306;DHT22;137;48.578;9.180;2023-11-18T09:15:02;6.70;98.20
306;DHT22;137;48.578;9.180;2023-11-18T09:17:29;6.80;98.20
306;DHT22;137;48.578;9.180;2023-11-18T09:19:56;6.90;98.20
306;DHT22;137;48.578;9.180;2023-11-18T09:22:22;7.00;98.20
306;DHT22;137;48.578;9.180;2023-11-18T09:24:50;7.10;98.20
306;DHT22;137;48.578;9.180;2023-11-18T09:27:16;7.20;98.20
306;DHT22;137;48.578;9.180;2023-11-18T09:29:44;7.20;98.20
306;DHT22;137;48.578;9.180;2023-11-18T09:32:11;7.20;98.20
306;DHT22;137;48.578;9.180;2023-11-18T09:34:40;7.30;98.20
306;DHT22;137;48.578;9.180;2023-11-18T09:37:07;7.40;98.20
306;DHT22;137;48.578;9.180;2023-11-18T09:39:35;7.40;98.20
306;DHT22;137;48.578;9.180;2023-11-18T09:42:05;7.60;98.20
306;DHT22;137;48.578;9.180;2023-11-18T09:44:35;7.70;98.20
306;DHT22;137;48.578;9.180;2023-11-18T09:47:07;7.80;98.20
306;DHT22;137;48.578;9.180;2023-11-18T09:49:40;7.90;98.20
306;DHT22;137;48.578;9.180;2023-11-18T09:52:15;8.00;98.20
306;DHT22;137;48.578;9.180;2023-11-18T09:54:52;8.10;98.20
306;DHT22;137;48.578;9.180;2023-11-18T09:57:28;8.20;98.20
306;DHT22;137;48.578;9.180;2023-11-18T10:00:01;8.30;98.20
306;DHT22;137;48.578;9.180;2023-11-18T10:02:39;8.40;98.20
306;DHT22;137;48.578;9.180;2023-11-18T10:05:07;8.30;98.20
306;DHT22;137;48.578;9.180;2023-11-18T10:07:38;8.30;98.20
306;DHT22;137;48.578;9.180;2023-11-18T10:10:07;8.40;98.20
306;DHT22;137;48.578;9.180;2023-11-18T10:12:40;8.50;98.20
306;DHT22;137;48.578;9.180;2023-11-18T10:15:08;8.60;98.20
306;DHT22;137;48.578;9.180;2023-11-18T10:17:38;8.70;98.20
306;DHT22;137;48.578;9.180;2023-11-18T10:20:21;8.80;98.20
306;DHT22;137;48.578;9.180;2023-11-18T10:23:05;8.90;98.20
306;DHT22;137;48.578;9.180;2023-11-18T10:25:32;9.00;98.20
306;DHT22;137;48.578;9.180;2023-11-18T10:28:01;9.00;98.20
306;DHT22;137;48.578;9.180;2023-11-18T10:30:28;9.20;98.20
306;DHT22;137;48.578;9.180;2023-11-18T10:32:59;9.10;98.20
306;DHT22;137;48.578;9.180;2023-11-18T10:35:31;9.00;98.20
306;DHT22;137;48.578;9.180;2023-11-18T10:38:01;9.20;98.20
306;DHT22;137;48.578;9.180;2023-11-18T10:40:31;9.30;98.20
306;DHT22;137;48.578;9.180;2023-11-18T10:43:00;9.40;98.20
306;DHT22;137;48.578;9.180;2023-11-18T10:45:27;9.50;98.20
306;DHT22;137;48.578;9.180;2023-11-18T10:47:54;9.50;98.20
306;DHT22;137;48.578;9.180;2023-11-18T10:50:24;9.60;98.20
306;DHT22;137;48.578;9.180;2023-11-18T10:52:57;9.60;98.20
306;DHT22;137;48.578;9.180;2023-11-18T10:55:35;9.70;98.20
306;DHT22;137;48.578;9.180;2023-11-18T10:58:02;9.60;98.20
306;DHT22;137;48.578;9.180;2023-11-18T11:00:46;9.70;98.20
306;DHT22;137;48.578;9.180;2023-11-18T11:03:13;9.70;98.20
306;DHT22;137;48.578;9.180;2023-11-18T11:05:41;9.80;98.20
306;DHT22;137;48.578;9.180;2023-11-18T11:08:09;9.80;98.20
306;DHT22;137;48.578;9.180;2023-11-18T11:10:39;9.80;98.20
306;DHT22;137;48.578;9.180;2023-11-18T11:13:08;9.80;98.20
306;DHT22;137;48.578;9.180;2023-11-18T11:15:42;9.80;98.20
306;DHT22;137;48.578;9.180;2023-11-18T11:18:12;9.70;98.20
306;DHT22;137;48.578;9.180;2023-11-18T11:23:18;9.70;98.20
306;DHT22;137;48.578;9.180;2023-11-18T11:25:57;9.70;98.20
306;DHT22;137;48.578;9.180;2023-11-18T11:28:34;9.70;98.20
306;DHT22;137;48.578;9.180;2023-11-18T11:31:12;9.80;98.20
306;DHT22;137;48.578;9.180;2023-11-18T11:33:46;9.80;98.20
306;DHT22;137;48.578;9.180;2023-11-18T11:36:20;9.80;98.20
306;DHT22;137;48.578;9.180;2023-11-18T11:38:50;9.80;98.20
306;DHT22;137;48.578;9.180;2023-11-18T11:41:21;9.80;98.20
306;DHT22;137;48.578;9.180;2023-11-18T11:43:52;9.80;98.20
306;DHT22;137;48.578;9.180;2023-11-18T11:46:21;9.70;98.20
306;DHT22;137;48.578;9.180;2023-11-18T11:48:49;9.70;98.20
306;DHT22;137;48.578;9.180;2023-11-18T11:51:24;9.80;98.20
306;DHT22;137;48.578;9.180;2023-11-18T11:54:00;9.70;98.20
306;DHT22;137;48.578;9.180;2023-11-18T11:56:48;9.80;98.20
306;DHT22;137;48.578;9.180;2023-11-18T11:59:35;9.80;98.20
306;DHT22;137;48.578;9.180;2023-11-18T12:02:03;9.70;98.20
306;DHT22;137;48.578;9.180;2023-11-18T12:04:33;9.70;98.20
306;DHT22;137;48.578;9.180;2023-11-18T12:07:03;9.60;98.20
306;DHT22;137;48.578;9.180;2023-11-18T12:09:32;9.50;98.20
306;DHT22;137;48.578;9.180;2023-11-18T12:12:04;9.50;98.20
306;DHT22;137;48.578;9.180;2023-11-18T12:14:49;9.30;98.20
306;DHT22;137;48.578;9.180;2023-11-18T12:17:16;9.40;98.20
306;DHT22;137;48.578;9.180;2023-11-18T12:19:48;9.30;98.20
306;DHT22;137;48.578;9.180;2023-11-18T12:22:18;9.30;98.20
306;DHT22;137;48.578;9.180;2023-11-18T12:28:09;9.30;98.20
306;DHT22;137;48.578;9.180;2023-11-18T12:30:38;9.30;98.20
306;DHT22;137;48.578;9.180;2023-11-18T12:33:09;9.30;98.20
306;DHT22;137;48.578;9.180;2023-11-18T12:35:45;9.30;98.20
306;DHT22;137;48.578;9.180;2023-11-18T12:38:37;9.30;98.20
306;DHT22;137;48.578;9.180;2023-11-18T12:41:21;9.30;98.20
306;DHT22;137;48.578;9.180;2023-11-18T12:44:07;9.20;98.20
306;DHT22;137;48.578;9.180;2023-11-18T12:46:50;9.20;98.20
306;DHT22;137;48.578;9.180;2023-11-18T12:49:18;9.20;98.20
306;DHT22;137;48.578;9.180;2023-11-18T12:51:49;9.10;98.20
306;DHT22;137;48.578;9.180;2023-11-18T12:54:17;9.00;98.20
306;DHT22;137;48.578;9.180;2023-11-18T12:56:46;9.00;98.20
306;DHT22;137;48.578;9.180;2023-11-18T12:59:14;9.00;98.20
306;DHT22;137;48.578;9.180;2023-11-18T13:01:43;9.00;98.20
306;DHT22;137;48.578;9.180;2023-11-18T13:04:16;8.90;98.20
306;DHT22;137;48.578;9.180;2023-11-18T13:06:45;8.90;98.20
306;DHT22;137;48.578;9.180;2023-11-18T13:09:14;8.90;98.20
306;DHT22;137;48.578;9.180;2023-11-18T13:11:52;8.90;98.20
306;DHT22;137;48.578;9.180;2023-11-18T13:14:22;8.80;98.20
306;DHT22;137;48.578;9.180;2023-11-18T13:16:50;8.70;98.20
306;DHT22;137;48.578;9.180;2023-11-18T13:19:23;8.70;98.20
306;DHT22;137;48.578;9.180;2023-11-18T13:21:51;8.60;98.20
306;DHT22;137;48.578;9.180;2023-11-18T13:24:18;8.70;98.20
306;DHT22;137;48.578;9.180;2023-11-18T13:26:45;8.70;98.20
306;DHT22;137;48.578;9.180;2023-11-18T13:29:13;8.70;98.20
306;DHT22;137;48.578;9.180;2023-11-18T13:31:41;8.70;98.20
306;DHT22;137;48.578;9.180;2023-11-18T13:34:08;8.70;98.20
306;DHT22;137;48.578;9.180;2023-11-18T13:36:36;8.70;98.20
306;DHT22;137;48.578;9.180;2023-11-18T13:39:04;8.60;98.20
306;DHT22;137;48.578;9.180;2023-11-18T13:41:32;8.60;98.20
306;DHT22;137;48.578;9.180;2023-11-18T13:43:59;8.60;98.20
306;DHT22;137;48.578;9.180;2023-11-18T13:46:27;8.60;98.20
306;DHT22;137;48.578;9.180;2023-11-18T13:48:54;8.50;98.20
306;DHT22;137;48.578;9.180;2023-11-18T13:51:21;8.40;98.20
306;DHT22;137;48.578;9.180;2023-11-18T13:53:48;8.40;98.20
306;DHT22;137;48.578;9.180;2023-11-18T13:56:19;8.40;98.20
306;DHT22;137;48.578;9.180;2023-11-18T13:58:47;8.40;98.20
306;DHT22;137;48.578;9.180;2023-11-18T14:01:15;8.30;98.20
306;DHT22;137;48.578;9.180;2023-11-18T14:03:43;8.30;98.20
306;DHT22;137;48.578;9.180;2023-11-18T14:06:13;8.30;98.20
306;DHT22;137;48.578;9.180;2023-11-18T14:08:43;8.30;98.20
306;DHT22;137;48.578;9.180;2023-11-18T14:11:10;8.30;98.20
306;DHT22;137;48.578;9.180;2023-11-18T14:13:37;8.20;98.20
306;DHT22;137;48.578;9.180;2023-11-18T14:16:04;8.30;98.20
306;DHT22;137;48.578;9.180;2023-11-18T14:18:35;8.30;98.20
306;DHT22;137;48.578;9.180;2023-11-18T14:21:04;8.30;98.20
306;DHT22;137;48.578;9.180;2023-11-18T14:23:32;8.40;98.20
306;DHT22;137;48.578;9.180;2023-11-18T14:25:58;8.50;98.20
306;DHT22;137;48.578;9.180;2023-11-18T14:28:25;8.60;98.20
306;DHT22;137;48.578;9.180;2023-11-18T14:30:53;8.50;98.20
306;DHT22;137;48.578;9.180;2023-11-18T14:33:19;8.50;98.20
306;DHT22;137;48.578;9.180;2023-11-18T14:35:46;8.40;98.20
306;DHT22;137;48.578;9.180;2023-11-18T14:38:13;8.30;98.20
306;DHT22;137;48.578;9.180;2023-11-18T14:40:40;8.30;98.20
306;DHT22;137;48.578;9.180;2023-11-18T14:43:07;8.20;98.20
306;DHT22;137;48.578;9.180;2023-11-18T14:45:34;8.20;98.20
306;DHT22;137;48.578;9.180;2023-11-18T14:48:03;8.20;98.20
306;DHT22;137;48.578;9.180;2023-11-18T14:50:29;8.20;98.20
306;DHT22;137;48.578;9.180;2023-11-18T14:52:57;8.20;98.20
306;DHT22;137;48.578;9.180;2023-11-18T14:55:27;8.20;98.20
306;DHT22;137;48.578;9.180;2023-11-18T14:57:54;8.20;98.20
306;DHT22;137;48.578;9.180;2023-11-18T15:00:22;8.20;98.20
306;DHT22;137;48.578;9.180;2023-11-18T15:02:53;8.30;98.20
306;DHT22;137;48.578;9.180;2023-11-18T15:05:21;8.30;98.20
306;DHT22;137;48.578;9.180;2023-11-18T15:07:49;8.40;98.20
306;DHT22;137;48.578;9.180;2023-11-18T15:10:16;8.30;98.20
306;DHT22;137;48.578;9.180;2023-11-18T15:12:48;8.30;98.20
306;DHT22;137;48.578;9.180;2023-11-18T15:15:18;8.20;98.20
306;DHT22;137;48.578;9.180;2023-11-18T15:17:46;8.10;98.20
306;DHT22;137;48.578;9.180;2023-11-18T15:20:14;8.00;98.20
306;DHT22;137;48.578;9.180;2023-11-18T15:22:42;8.00;98.20
306;DHT22;137;48.578;9.180;2023-11-18T15:25:10;7.90;98.20
306;DHT22;137;48.578;9.180;2023-11-18T15:27:38;7.90;98.20
306;DHT22;137;48.578;9.180;2023-11-18T15:30:08;7.90;98.20
306;DHT22;137;48.578;9.180;2023-11-18T15:32:38;7.90;98.20
306;DHT22;137;48.578;9.180;2023-11-18T15:35:06;7.90;98.20
306;DHT22;137;48.578;9.180;2023-11-18T15:37:36;7.90;98.20
306;DHT22;137;48.578;9.180;2023-11-18T15:40:05;7.90;98.20
306;DHT22;137;48.578;9.180;2023-11-18T15:42:39;7.90;98.20
306;DHT22;137;48.578;9.180;2023-11-18T15:45:16;8.00;98.20
306;DHT22;137;48.578;9.180;2023-11-18T15:47:43;8.00;98.20
306;DHT22;137;48.578;9.180;2023-11-18T15:50:11;8.00;98.20
306;DHT22;137;48.578;9.180;2023-11-18T15:52:41;7.90;98.20
306;DHT22;137;48.578;9.180;2023-11-18T15:55:08;7.90;98.20
306;DHT22;137;48.578;9.180;2023-11-18T15:57:39;7.90;98.20
306;DHT22;137;48.578;9.180;2023-11-18T16:00:07;7.90;98.20
306;DHT22;137;48.578;9.180;2023-11-18T16:02:41;8.00;98.20
306;DHT22;137;48.578;9.180;2023-11-18T16:05:11;8.00;98.20
306;DHT22;137;48.578;9.180;2023-11-18T16:07:39;8.00;98.20
306;DHT22;137;48.578;9.180;2023-11-18T16:10:06;8.00;98.20
306;DHT22;137;48.578;9.180;2023-11-18T16:12:33;8.00;98.20
306;DHT22;137;48.578;9.180;2023-11-18T16:15:00;7.90;98.20
306;DHT22;137;48.578;9.180;2023-11-18T16:17:27;7.90;98.20
306;DHT22;137;48.578;9.180;2023-11-18T16:19:55;7.90;98.20
306;DHT22;137;48.578;9.180;2023-11-18T16:22:22;7.90;98.20
306;DHT22;137;48.578;9.180;2023-11-18T16:24:50;7.80;98.20
306;DHT22;137;48.578;9.180;2023-11-18T16:27:17;7.80;98.20
306;DHT22;137;48.578;9.180;2023-11-18T16:29:44;7.80;98.20
306;DHT22;137;48.578;9.180;2023-11-18T16:32:11;7.80;98.20
306;DHT22;137;48.578;9.180;2023-11-18T16:34:38;7.70;98.20
306;DHT22;137;48.578;9.180;2023-11-18T16:37:06;7.70;98.20
306;DHT22;137;48.578;9.180;2023-11-18T16:39:32;7.70;98.20
306;DHT22;137;48.578;9.180;2023-11-18T16:41:59;7.70;98.20
306;DHT22;137;48.578;9.180;2023-11-18T16:44:26;7.70;98.20
306;DHT22;137;48.578;9.180;2023-11-18T16:46:52;7.70;98.20
306;DHT22;137;48.578;9.180;2023-11-18T16:49:19;7.70;98.20
306;DHT22;137;48.578;9.180;2023-11-18T16:51:48;7.70;98.20
306;DHT22;137;48.578;9.180;2023-11-18T16:54:16;7.60;98.20
306;DHT22;137;48.578;9.180;2023-11-18T16:56:44;7.60;98.20
306;DHT22;137;48.578;9.180;2023-11-18T16:59:11;7.60;98.20
306;DHT22;137;48.578;9.180;2023-11-18T17:01:40;7.60;98.20
306;DHT22;137;48.578;9.180;2023-11-18T17:04:06;7.60;98.20
306;DHT22;137;48.578;9.180;2023-11-18T17:06:33;7.60;98.20
306;DHT22;137;48.578;9.180;2023-11-18T17:09:00;7.60;98.20